createdAt,value
2023-03-27T00:00:16.727Z,7.54
2023-03-27T00:02:46.977Z,7.35
2023-03-27T00:05:16.395Z,6.63
2023-03-27T00:07:44.788Z,7.32
2023-03-27T00:10:13.432Z,7.21
2023-03-27T00:12:41.620Z,7.16
2023-03-27T00:15:15.997Z,7.12
2023-03-27T00:17:46.774Z,7.14
2023-03-27T00:20:16.471Z,7.15
2023-03-27T00:22:45.202Z,5.98
2023-03-27T00:25:13.353Z,6.85
2023-03-27T00:27:41.937Z,7.03
2023-03-27T00:30:12.842Z,6.99
2023-03-27T00:32:40.936Z,6.89
2023-03-27T00:35:10.622Z,6.95
2023-03-27T00:37:39.019Z,6.94
2023-03-27T00:40:09.096Z,7.00
2023-03-27T00:42:37.403Z,7.06
2023-03-27T00:45:06.367Z,7.08
2023-03-27T00:47:39.164Z,6.93
2023-03-27T00:50:11.031Z,7.14
2023-03-27T00:52:41.482Z,7.24
2023-03-27T00:55:14.325Z,7.36
2023-03-27T00:57:43.945Z,7.32
2023-03-27T01:00:14.588Z,7.41
2023-03-27T01:02:47.836Z,7.47
2023-03-27T01:05:17.171Z,7.48
2023-03-27T01:08:00.541Z,7.43
2023-03-27T01:10:41.946Z,7.46
2023-03-27T01:13:23.753Z,7.32
2023-03-27T01:16:00.046Z,7.27
2023-03-27T01:18:41.098Z,7.05
2023-03-27T01:21:51.971Z,6.79
2023-03-27T01:25:03.993Z,7.09
2023-03-27T01:27:54.083Z,7.06
2023-03-27T01:30:30.562Z,5.70
2023-03-27T01:33:27.289Z,6.84
2023-03-27T01:36:10.106Z,7.04
2023-03-27T01:39:17.567Z,7.15
2023-03-27T01:41:53.430Z,7.18
2023-03-27T01:44:36.441Z,7.21
2023-03-27T01:47:21.733Z,6.11
2023-03-27T01:49:55.662Z,7.10
2023-03-27T01:52:29.383Z,7.22
2023-03-27T01:55:03.507Z,7.29
2023-03-27T01:57:37.422Z,7.25
2023-03-27T02:00:22.429Z,7.35
2023-03-27T02:02:56.929Z,7.41
2023-03-27T02:05:31.798Z,7.38
2023-03-27T02:08:05.886Z,7.36
2023-03-27T02:10:40.133Z,7.38
2023-03-27T02:13:14.463Z,7.35
2023-03-27T02:15:46.728Z,7.27
2023-03-27T02:18:20.675Z,7.25
2023-03-27T02:20:48.819Z,7.10
2023-03-27T02:23:16.960Z,7.25
2023-03-27T02:25:47.643Z,7.07
2023-03-27T02:28:56.895Z,7.19
2023-03-27T02:31:45.983Z,6.95
2023-03-27T02:34:33.820Z,7.08
2023-03-27T02:37:12.182Z,7.21
2023-03-27T02:39:48.935Z,7.24
2023-03-27T02:42:23.550Z,7.27
2023-03-27T02:44:57.653Z,6.66
2023-03-27T02:47:31.894Z,7.22
2023-03-27T02:50:04.938Z,7.43
2023-03-27T02:52:36.340Z,7.51
2023-03-27T02:55:09.378Z,7.57
2023-03-27T02:57:40.222Z,7.66
2023-03-27T03:00:25.500Z,7.65
2023-03-27T03:03:01.332Z,7.50
2023-03-27T03:05:29.782Z,7.55
2023-03-27T03:07:58.358Z,7.63
2023-03-27T03:10:28.086Z,7.70
2023-03-27T03:12:57.596Z,7.69
2023-03-27T03:15:25.739Z,7.63
2023-03-27T03:17:54.247Z,7.64
2023-03-27T03:20:24.035Z,7.67
2023-03-27T03:22:52.695Z,6.93
2023-03-27T03:25:20.808Z,7.68
2023-03-27T03:27:48.897Z,7.69
2023-03-27T03:30:19.540Z,7.67
2023-03-27T03:32:48.243Z,7.68
2023-03-27T03:35:16.553Z,7.70
2023-03-27T03:37:51.188Z,7.68
2023-03-27T03:40:20.915Z,7.43
2023-03-27T03:42:50.516Z,7.63
2023-03-27T03:45:20.899Z,7.60
2023-03-27T03:47:49.047Z,7.39
2023-03-27T03:50:17.593Z,7.69
2023-03-27T03:52:47.196Z,7.69
2023-03-27T03:55:16.071Z,7.69
2023-03-27T03:57:47.701Z,7.71
2023-03-27T04:00:18.866Z,7.76
2023-03-27T04:02:50.569Z,7.76
2023-03-27T04:05:18.895Z,7.78
2023-03-27T04:07:46.999Z,7.83
2023-03-27T04:10:15.140Z,7.72
2023-03-27T04:12:48.401Z,7.67
2023-03-27T04:15:17.125Z,7.67
2023-03-27T04:17:46.103Z,7.49
2023-03-27T04:20:17.503Z,7.12
2023-03-27T04:22:47.524Z,7.53
2023-03-27T04:25:17.330Z,7.25
2023-03-27T04:27:45.972Z,7.60
2023-03-27T04:30:15.920Z,6.89
2023-03-27T04:32:44.143Z,7.25
2023-03-27T04:35:12.305Z,7.01
2023-03-27T04:37:43.498Z,7.10
2023-03-27T04:40:13.405Z,7.05
2023-03-27T04:42:43.777Z,7.00
2023-03-27T04:45:14.100Z,7.00
2023-03-27T04:47:42.866Z,7.00
2023-03-27T04:50:12.901Z,6.88
2023-03-27T04:52:42.812Z,6.94
2023-03-27T04:55:12.394Z,6.96
2023-03-27T04:57:41.836Z,6.95
2023-03-27T05:00:16.468Z,6.96
2023-03-27T05:02:44.923Z,7.05
2023-03-27T05:05:14.071Z,7.06
2023-03-27T05:07:46.484Z,7.02
2023-03-27T05:10:15.909Z,6.77
2023-03-27T05:12:44.783Z,6.46
2023-03-27T05:15:13.490Z,6.83
2023-03-27T05:17:43.383Z,6.89
2023-03-27T05:20:14.802Z,6.89
2023-03-27T05:22:45.006Z,6.90
2023-03-27T05:25:13.828Z,6.85
2023-03-27T05:27:46.361Z,6.73
2023-03-27T05:30:16.101Z,7.11
2023-03-27T05:32:48.384Z,7.09
2023-03-27T05:35:18.191Z,7.14
2023-03-27T05:37:48.980Z,6.24
2023-03-27T05:40:21.218Z,7.10
2023-03-27T05:42:51.318Z,7.05
2023-03-27T05:45:20.201Z,6.84
2023-03-27T05:47:50.488Z,6.78
2023-03-27T05:50:20.067Z,6.28
2023-03-27T05:52:56.506Z,6.82
2023-03-27T05:55:27.454Z,6.97
2023-03-27T05:57:56.347Z,6.87
2023-03-27T06:00:26.007Z,6.68
2023-03-27T06:02:57.194Z,7.00
2023-03-27T06:05:29.333Z,6.88
2023-03-27T06:07:59.542Z,6.77
2023-03-27T06:10:29.605Z,6.79
2023-03-27T06:13:01.827Z,6.89
2023-03-27T06:15:30.287Z,6.93
2023-03-27T06:17:58.790Z,6.18
2023-03-27T06:20:27.740Z,7.10
2023-03-27T06:23:03.796Z,7.18
2023-03-27T06:25:34.734Z,7.32
2023-03-27T06:28:04.734Z,6.50
2023-03-27T06:30:34.351Z,7.38
2023-03-27T06:33:03.107Z,7.26
2023-03-27T06:35:34.126Z,7.41
2023-03-27T06:38:04.003Z,6.98
2023-03-27T06:40:35.416Z,7.57
2023-03-27T06:43:05.872Z,7.63
2023-03-27T06:45:43.958Z,7.50
2023-03-27T06:48:20.584Z,7.82
2023-03-27T06:50:51.931Z,7.95
2023-03-27T06:55:53.266Z,8.22
2023-03-27T06:58:21.984Z,8.26
2023-03-27T07:00:51.514Z,8.18
2023-03-27T07:03:22.052Z,7.25
2023-03-27T07:05:50.657Z,8.43
2023-03-27T07:08:24.355Z,8.36
2023-03-27T07:13:27.336Z,8.51
2023-03-27T07:15:58.260Z,8.60
2023-03-27T07:18:26.488Z,8.58
2023-03-27T07:20:54.927Z,8.72
2023-03-27T07:23:36.293Z,8.67
2023-03-27T07:26:06.471Z,8.04
2023-03-27T07:28:38.587Z,8.84
2023-03-27T07:31:25.844Z,8.82
2023-03-27T07:34:00.594Z,9.06
2023-03-27T07:36:28.890Z,9.17
2023-03-27T07:38:57.014Z,9.30
2023-03-27T07:41:26.781Z,9.41
2023-03-27T07:43:55.036Z,9.53
2023-03-27T07:46:24.411Z,9.65
2023-03-27T07:48:52.749Z,9.72
2023-03-27T07:51:21.191Z,9.81
2023-03-27T07:53:54.049Z,9.88
2023-03-27T07:56:24.683Z,9.50
2023-03-27T07:58:55.384Z,9.87
2023-03-27T08:01:24.198Z,9.88
2023-03-27T08:03:52.509Z,9.90
2023-03-27T08:06:21.548Z,10.13
2023-03-27T08:08:50.945Z,10.44
2023-03-27T08:11:30.441Z,10.72
2023-03-27T08:14:01.114Z,10.94
2023-03-27T08:16:30.138Z,11.25
2023-03-27T08:19:00.251Z,11.44
2023-03-27T08:21:28.523Z,11.62
2023-03-27T08:23:58.892Z,11.79
2023-03-27T08:26:27.970Z,11.84
2023-03-27T08:28:56.594Z,11.68
2023-03-27T08:31:29.360Z,12.31
2023-03-27T08:33:57.615Z,12.52
2023-03-27T08:36:27.309Z,12.55
2023-03-27T08:38:55.570Z,12.74
2023-03-27T08:41:30.826Z,12.82
2023-03-27T08:44:04.361Z,12.91
2023-03-27T08:46:37.898Z,12.92
2023-03-27T08:49:09.827Z,12.90
2023-03-27T08:51:43.238Z,12.99
2023-03-27T08:54:18.309Z,12.95
2023-03-27T08:56:46.803Z,12.55
2023-03-27T08:59:17.590Z,12.43
2023-03-27T09:01:53.792Z,12.30
2023-03-27T09:04:32.473Z,12.35
2023-03-27T09:07:04.491Z,12.33
2023-03-27T09:09:47.833Z,12.02
2023-03-27T09:12:30.312Z,12.05
2023-03-27T09:15:05.918Z,12.00
2023-03-27T09:17:40.533Z,12.13
2023-03-27T09:20:18.443Z,12.30
2023-03-27T09:22:52.882Z,12.36
2023-03-27T09:25:27.612Z,12.47
2023-03-27T09:27:56.319Z,12.54
2023-03-27T09:30:27.903Z,12.55
2023-03-27T09:33:01.105Z,12.66
2023-03-27T09:35:29.381Z,12.84
2023-03-27T09:38:02.808Z,12.60
2023-03-27T09:40:36.523Z,12.56
2023-03-27T09:43:09.581Z,12.79
2023-03-27T09:45:40.844Z,12.84
2023-03-27T09:48:16.371Z,12.76
2023-03-27T09:50:47.581Z,12.90
2023-03-27T09:53:18.274Z,12.90
2023-03-27T09:55:53.161Z,12.94
2023-03-27T09:58:32.546Z,12.88
2023-03-27T10:01:17.760Z,12.75
2023-03-27T10:03:53.275Z,13.00
2023-03-27T10:06:30.355Z,13.10
2023-03-27T10:09:01.399Z,13.20
2023-03-27T10:11:33.909Z,12.20
2023-03-27T10:14:10.868Z,13.19
2023-03-27T10:16:41.863Z,13.23
2023-03-27T10:19:23.596Z,12.85
2023-03-27T10:21:52.769Z,12.93
2023-03-27T10:24:27.576Z,12.98
2023-03-27T10:27:00.853Z,13.00
2023-03-27T10:29:32.918Z,12.88
2023-03-27T10:32:04.184Z,12.44
2023-03-27T10:34:38.016Z,12.17
2023-03-27T10:37:21.769Z,11.98
2023-03-27T10:39:50.472Z,11.77
2023-03-27T10:42:19.882Z,11.83
2023-03-27T10:44:49.814Z,11.50
2023-03-27T10:47:21.020Z,11.62
2023-03-27T10:49:57.925Z,11.72
2023-03-27T10:52:31.234Z,11.30
2023-03-27T10:55:13.641Z,11.44
2023-03-27T10:57:48.288Z,12.07
2023-03-27T11:00:22.703Z,12.22
2023-03-27T11:02:57.530Z,12.20
2023-03-27T11:05:30.478Z,12.05
2023-03-27T11:08:04.607Z,12.05
2023-03-27T11:10:38.072Z,12.02
2023-03-27T11:13:15.416Z,12.04
2023-03-27T11:15:47.843Z,12.09
2023-03-27T11:18:22.275Z,11.93
2023-03-27T11:20:56.717Z,11.76
2023-03-27T11:23:31.142Z,11.60
2023-03-27T11:26:02.667Z,11.44
2023-03-27T11:28:39.869Z,11.71
2023-03-27T11:31:16.690Z,11.99
2023-03-27T11:33:51.519Z,12.11
2023-03-27T11:36:31.301Z,12.14
2023-03-27T11:39:08.697Z,11.49
2023-03-27T11:41:36.880Z,11.15
2023-03-27T11:44:05.287Z,11.01
2023-03-27T11:46:57.619Z,11.02
2023-03-27T11:49:42.654Z,11.01
2023-03-27T11:52:22.284Z,11.20
2023-03-27T11:55:11.898Z,11.18
2023-03-27T11:57:54.729Z,11.26
2023-03-27T12:00:32.398Z,11.48
2023-03-27T12:03:37.050Z,11.66
2023-03-27T12:06:14.758Z,11.99
2023-03-27T12:09:02.466Z,12.30
2023-03-27T12:11:31.365Z,12.20
2023-03-27T12:14:18.314Z,12.09
2023-03-27T12:17:16.820Z,12.08
2023-03-27T12:20:10.933Z,12.04
2023-03-27T12:22:46.317Z,12.03
2023-03-27T12:25:37.872Z,12.06
2023-03-27T12:28:23.194Z,12.08
2023-03-27T12:30:59.689Z,12.04
2023-03-27T12:33:41.143Z,12.15
2023-03-27T12:36:14.550Z,12.00
2023-03-27T12:38:45.139Z,11.97
2023-03-27T12:41:26.234Z,11.70
2023-03-27T12:43:59.142Z,11.57
2023-03-27T12:46:39.077Z,11.59
2023-03-27T12:49:50.734Z,11.61
2023-03-27T12:52:20.000Z,11.61
2023-03-27T12:55:31.145Z,11.48
2023-03-27T12:58:03.148Z,10.94
2023-03-27T13:00:33.059Z,11.02
2023-03-27T13:03:28.605Z,11.01
2023-03-27T13:06:14.403Z,11.12
2023-03-27T13:08:54.939Z,10.96
2023-03-27T13:11:36.944Z,11.11
2023-03-27T13:14:38.485Z,11.02
2023-03-27T13:17:24.816Z,10.70
2023-03-27T13:20:10.111Z,10.60
2023-03-27T13:22:54.536Z,10.52
2023-03-27T13:25:32.791Z,10.14
2023-03-27T13:28:27.480Z,10.35
2023-03-27T13:30:58.744Z,10.58
2023-03-27T13:33:28.509Z,10.72
2023-03-27T13:36:06.261Z,10.40
2023-03-27T13:39:13.904Z,10.63
2023-03-27T13:42:12.915Z,10.11
2023-03-27T13:44:59.023Z,10.09
2023-03-27T13:48:06.918Z,9.98
2023-03-27T13:51:02.022Z,9.38
2023-03-27T13:53:55.495Z,9.83
2023-03-27T13:56:45.027Z,9.80
2023-03-27T13:59:43.348Z,10.09
2023-03-27T14:02:41.436Z,10.16
2023-03-27T14:05:37.477Z,9.80
2023-03-27T14:08:20.484Z,9.90
2023-03-27T14:11:03.735Z,10.14
2023-03-27T14:13:49.870Z,10.08
2023-03-27T14:16:40.433Z,10.27
2023-03-27T14:19:35.772Z,9.99
2023-03-27T14:22:08.576Z,10.09
2023-03-27T14:24:41.375Z,9.90
2023-03-27T14:27:14.314Z,10.13
2023-03-27T14:29:42.564Z,10.09
2023-03-27T14:32:17.604Z,10.99
2023-03-27T14:34:54.664Z,10.97
2023-03-27T14:37:31.913Z,12.33
2023-03-27T14:40:02.186Z,11.50
2023-03-27T14:42:33.170Z,11.21
2023-03-27T14:45:20.697Z,11.59
2023-03-27T14:47:53.215Z,12.40
2023-03-27T14:50:21.651Z,12.11
2023-03-27T14:52:54.302Z,12.37
2023-03-27T14:55:29.932Z,12.43
2023-03-27T14:58:02.340Z,12.81
2023-03-27T15:00:34.620Z,11.11
2023-03-27T15:03:08.579Z,10.56
2023-03-27T15:06:00.863Z,10.18
2023-03-27T15:08:34.088Z,10.16
2023-03-27T15:11:05.084Z,9.72
2023-03-27T15:13:36.666Z,9.48
2023-03-27T15:16:06.766Z,9.08
2023-03-27T15:18:39.277Z,9.21
2023-03-27T15:21:14.436Z,9.01
2023-03-27T15:23:47.939Z,8.99
2023-03-27T15:26:24.944Z,9.24
2023-03-27T15:29:01.870Z,9.28
2023-03-27T15:31:30.943Z,9.45
2023-03-27T15:34:03.589Z,9.20
2023-03-27T15:36:36.231Z,9.15
2023-03-27T15:39:07.088Z,9.25
2023-03-27T15:41:44.118Z,9.31
2023-03-27T15:44:17.184Z,9.39
2023-03-27T15:46:53.256Z,8.71
2023-03-27T15:49:27.577Z,8.91
2023-03-27T15:51:56.846Z,8.98
2023-03-27T15:54:34.385Z,10.12
2023-03-27T15:57:11.658Z,11.65
2023-03-27T15:59:52.434Z,12.08
2023-03-27T16:02:22.893Z,11.82
2023-03-27T16:04:54.425Z,11.42
2023-03-27T16:07:25.590Z,9.46
2023-03-27T16:09:56.687Z,9.70
2023-03-27T16:12:31.849Z,9.37
2023-03-27T16:15:01.735Z,9.24
2023-03-27T16:17:34.306Z,8.77
2023-03-27T16:20:08.109Z,8.62
2023-03-27T16:22:38.118Z,8.49
2023-03-27T16:25:08.996Z,7.63
2023-03-27T16:27:41.626Z,8.14
2023-03-27T16:30:21.427Z,8.34
2023-03-27T16:32:49.832Z,8.24
2023-03-27T16:35:18.428Z,8.25
2023-03-27T16:37:47.876Z,7.87
2023-03-27T16:40:16.473Z,8.07
2023-03-27T16:42:46.155Z,8.03
2023-03-27T16:45:14.575Z,7.92
2023-03-27T16:47:42.784Z,7.85
2023-03-27T16:50:18.094Z,7.82
2023-03-27T16:52:46.327Z,7.50
2023-03-27T16:55:14.819Z,7.57
2023-03-27T16:57:43.612Z,7.61
2023-03-27T17:00:15.818Z,7.50
2023-03-27T17:02:44.643Z,6.69
2023-03-27T17:05:13.066Z,7.11
2023-03-27T17:07:41.936Z,7.13
2023-03-27T17:10:11.435Z,7.24
2023-03-27T17:12:39.723Z,7.19
2023-03-27T17:15:09.245Z,7.16
2023-03-27T17:17:38.901Z,7.02
2023-03-27T17:20:08.898Z,7.10
2023-03-27T17:22:37.049Z,6.83
2023-03-27T17:25:06.186Z,6.86
2023-03-27T17:27:35.087Z,7.03
2023-03-27T17:30:03.627Z,7.03
2023-03-27T17:32:31.834Z,7.03
2023-03-27T17:35:01.403Z,6.97
2023-03-27T17:37:29.672Z,6.90
2023-03-27T17:39:58.524Z,6.87
2023-03-27T17:42:26.828Z,6.78
2023-03-27T17:44:55.020Z,6.86
2023-03-27T17:47:23.288Z,6.60
2023-03-27T17:49:53.297Z,6.83
2023-03-27T17:52:23.572Z,6.75
2023-03-27T17:54:51.717Z,6.71
2023-03-27T17:57:20.136Z,6.71
2023-03-27T17:59:48.325Z,6.76
2023-03-27T18:02:18.653Z,6.53
2023-03-27T18:04:52.172Z,6.52
2023-03-27T18:07:21.069Z,6.19
2023-03-27T18:09:51.751Z,6.28
2023-03-27T18:12:19.955Z,6.12
2023-03-27T18:14:48.075Z,6.06
2023-03-27T18:17:21.074Z,5.93
2023-03-27T18:19:49.282Z,6.06
2023-03-27T18:22:17.771Z,6.04
2023-03-27T18:24:46.004Z,6.03
2023-03-27T18:27:16.600Z,5.47
2023-03-27T18:29:44.842Z,5.28
2023-03-27T18:32:12.939Z,5.96
2023-03-27T18:34:41.483Z,5.69
2023-03-27T18:37:09.644Z,5.83
2023-03-27T18:39:38.134Z,5.86
2023-03-27T18:42:06.917Z,5.81
2023-03-27T18:44:39.076Z,5.55
2023-03-27T18:47:09.191Z,5.66
2023-03-27T18:49:39.102Z,5.74
2023-03-27T18:52:07.240Z,5.64
2023-03-27T18:54:37.152Z,5.46
2023-03-27T18:57:05.730Z,5.34
2023-03-27T18:59:34.124Z,5.44
2023-03-27T19:02:04.065Z,5.26
2023-03-27T19:04:32.793Z,5.36
2023-03-27T19:07:01.358Z,5.04
2023-03-27T19:09:40.806Z,5.14
2023-03-27T19:12:10.458Z,5.22
2023-03-27T19:14:38.951Z,5.16
2023-03-27T19:17:08.708Z,5.13
2023-03-27T19:19:37.022Z,5.04
2023-03-27T19:22:08.390Z,4.85
2023-03-27T19:24:37.105Z,4.76
2023-03-27T19:27:05.669Z,4.80
2023-03-27T19:29:34.246Z,4.48
2023-03-27T19:32:02.653Z,4.74
2023-03-27T19:34:42.008Z,4.67
2023-03-27T19:37:11.013Z,4.61
2023-03-27T19:39:39.259Z,4.41
2023-03-27T19:42:07.560Z,4.33
2023-03-27T19:44:35.965Z,4.49
2023-03-27T19:47:04.553Z,4.49
2023-03-27T19:49:34.253Z,4.40
2023-03-27T19:52:02.616Z,4.15
2023-03-27T19:54:31.474Z,4.43
2023-03-27T19:56:59.993Z,4.40
2023-03-27T19:59:31.097Z,3.74
2023-03-27T20:01:59.735Z,4.24
2023-03-27T20:04:27.951Z,3.72
2023-03-27T20:06:59.062Z,3.78
2023-03-27T20:09:27.887Z,3.94
2023-03-27T20:11:57.126Z,4.31
2023-03-27T20:17:35.862Z,4.40
2023-03-27T20:20:06.053Z,4.44
2023-03-27T20:22:46.343Z,4.19
2023-03-27T20:25:23.053Z,4.36
2023-03-27T20:27:51.342Z,4.31
2023-03-27T20:30:19.726Z,4.39
2023-03-27T20:32:48.073Z,4.47
2023-03-27T20:35:24.446Z,4.45
2023-03-27T20:37:58.085Z,4.26
2023-03-27T20:40:26.967Z,4.48
2023-03-27T20:43:03.275Z,4.42
2023-03-27T20:45:32.417Z,4.55
2023-03-27T20:48:04.586Z,4.59
2023-03-27T20:50:35.863Z,4.37
2023-03-27T20:53:05.483Z,4.47
2023-03-27T20:55:39.153Z,4.52
2023-03-27T20:58:12.288Z,4.25
2023-03-27T21:00:40.741Z,4.44
2023-03-27T21:06:43.315Z,3.99
2023-03-27T21:09:14.190Z,4.34
2023-03-27T21:11:42.966Z,4.40
2023-03-27T21:14:11.308Z,4.16
2023-03-27T21:16:39.559Z,4.31
2023-03-27T21:19:07.793Z,4.15
2023-03-27T21:21:35.942Z,4.31
2023-03-27T21:24:04.674Z,4.40
2023-03-27T21:26:34.863Z,4.26
2023-03-27T21:29:03.512Z,4.31
2023-03-27T21:31:48.296Z,4.37
2023-03-27T21:34:16.657Z,4.23
2023-03-27T21:36:45.046Z,4.11
2023-03-27T21:39:13.175Z,4.05
2023-03-27T21:41:42.904Z,3.74
2023-03-27T21:44:11.017Z,4.10
2023-03-27T21:46:39.370Z,4.03
2023-03-27T21:49:07.588Z,3.87
2023-03-27T21:51:35.906Z,3.87
2023-03-27T21:54:04.075Z,3.68
2023-03-27T21:56:32.195Z,3.57
2023-03-27T21:59:01.774Z,3.51
2023-03-27T22:01:30.000Z,3.60
2023-03-27T22:04:02.110Z,3.51
2023-03-27T22:06:30.852Z,3.51
2023-03-27T22:08:59.235Z,3.33
2023-03-27T22:11:27.461Z,3.49
2023-03-27T22:13:56.027Z,3.38
2023-03-27T22:16:25.825Z,3.25
2023-03-27T22:18:54.151Z,3.49
2023-03-27T22:21:24.455Z,3.24
2023-03-27T22:23:53.707Z,3.53
2023-03-27T22:26:24.028Z,3.45
2023-03-27T22:28:52.700Z,3.55
2023-03-27T22:31:21.543Z,3.76
2023-03-27T22:33:51.886Z,3.92
2023-03-27T22:36:20.327Z,3.85
2023-03-27T22:38:48.550Z,3.82
2023-03-27T22:41:17.056Z,3.95
2023-03-27T22:43:47.904Z,3.92
2023-03-27T22:46:19.214Z,3.79
2023-03-27T22:48:47.613Z,3.83
2023-03-27T22:51:17.154Z,3.75
2023-03-27T22:53:45.289Z,3.59
2023-03-27T22:56:13.458Z,3.58
2023-03-27T22:58:41.636Z,3.53
2023-03-27T23:01:09.824Z,3.44
2023-03-27T23:03:38.035Z,3.49
2023-03-27T23:06:07.016Z,3.42
2023-03-27T23:08:36.618Z,3.38
2023-03-27T23:11:06.915Z,3.47
2023-03-27T23:13:36.535Z,3.38
2023-03-27T23:16:04.779Z,3.23
2023-03-27T23:18:33.052Z,3.25
2023-03-27T23:21:03.051Z,3.33
2023-03-27T23:23:32.737Z,2.96
2023-03-27T23:26:03.903Z,3.52
2023-03-27T23:28:34.531Z,2.73
2023-03-27T23:31:04.666Z,3.34
2023-03-27T23:33:36.678Z,1.88
2023-03-27T23:36:07.808Z,3.29
2023-03-27T23:38:37.490Z,3.32
2023-03-27T23:41:08.352Z,2.40
2023-03-27T23:43:36.863Z,3.10
2023-03-27T23:46:08.703Z,3.18
2023-03-27T23:48:37.380Z,3.22
2023-03-27T23:51:06.580Z,2.29
2023-03-27T23:53:35.396Z,2.88
2023-03-27T23:56:04.384Z,2.81
2023-03-27T23:58:33.923Z,2.82
